23 mei 2022

Tijd Code Weer Temp. Zicht Wolken Wind METAR/SPECI
08:55
V
14 °C 10 km+ - 030°   030° 17 kt METAR EHQE 230655Z AUTO 03017KT 9999 NSC 14/11 Q1003
08:25
V
14 °C 10 km+ - 030°   030° 17 kt METAR EHQE 230625Z AUTO 03017KT 9999 NSC 14/11 Q1003
07:55
V
14 °C 10 km+ - 040°   040° 17 kt METAR EHQE 230555Z AUTO 04017KT 9999 NSC 14/11 Q1003
07:25
V
14 °C 10 km+ - 050°   050° 18 kt METAR EHQE 230525Z AUTO 05018KT 9999 NSC 14/11 Q1003
06:55
V
14 °C 10 km+ - 130°   130° 20 kt METAR EHQE 230455Z AUTO 13020KT 9999 NSC 14/11 Q1004
06:25
V
15 °C 10 km+ - 130°   130° 20 kt METAR EHQE 230425Z AUTO 13020KT 9999 NSC 15/11 Q1004
05:55
V
14 °C 10 km+ - 040°   040° 20 kt METAR EHQE 230355Z AUTO 04020KT 9999 NSC 14/11 Q1005
05:25
V
15 °C 10 km+ - 040°   040° 19 kt METAR EHQE 230325Z AUTO 04019KT 9999 NSC 15/11 Q1005
04:55
V
15 °C 10 km+ - 040°   040° 19 kt METAR EHQE 230255Z AUTO 04019KT 9999 NSC 15/11 Q1006
04:25
V
15 °C 10 km+ - 040°   040° 20 kt METAR EHQE 230225Z AUTO 04020KT 9999 NSC 15/11 Q1006
03:55
V
15 °C 10 km+ - 130°   130° 20 kt METAR EHQE 230155Z AUTO 13020KT 9999 NSC 15/11 Q1006
03:25
V
16 °C 10 km+ - 130°   130° 21 kt METAR EHQE 230125Z AUTO 13021KT 9999 NSC 16/11 Q1006
02:55
V
16 °C 10 km+ - 040°   040° 21 kt METAR EHQE 230055Z AUTO 04021KT 9999 NSC 16/11 Q1007
02:25
V
16 °C 10 km+ - 040°   040° 21 kt METAR EHQE 230025Z AUTO 04021KT 9999 NSC 16/11 Q1007
01:55
V
16 °C 10 km+ - 130°   130° 20 kt METAR EHQE 222355Z AUTO 13020KT 9999 NSC 16/11 Q1007
01:25
V
16 °C 10 km+ - 040°   040° 19 kt METAR EHQE 222325Z AUTO 04019KT 9999 NSC 16/11 Q1008
00:55
V
17 °C 10 km+ - 140°   140° 17 kt METAR EHQE 222255Z AUTO 14017KT 9999 NSC 17/11 Q1008
00:25
V
17 °C 10 km+ - 130°   130° 14 kt METAR EHQE 222225Z AUTO 13014KT 9999 NSC 17/11 Q1009

22 mei 2022

Tijd Code Weer Temp. Zicht Wolken Wind METAR/SPECI
23:55
V
17 °C 10 km+ - 130°   130° 12 kt METAR EHQE 222155Z AUTO 13012KT 9999 NSC 17/11 Q1009
23:25
V
17 °C 10 km+ - 130°   130° 14 kt METAR EHQE 222125Z AUTO 13014KT 9999 NSC 17/11 Q1009
22:55
V
16 °C 10 km+ - 120°   120° 13 kt METAR EHQE 222055Z AUTO 12013KT 9999 NSC 16/10 Q1010
22:25
V
15 °C 10 km+ - 110°   110° 10 kt METAR EHQE 222025Z AUTO 11010KT 9999 NSC 15/11 Q1010
21:55
V
15 °C 10 km+ - 090°   090° 11 kt METAR EHQE 221955Z AUTO 09011KT 9999 NSC 15/10 Q1010
21:25
V
15 °C 10 km+ - 090°   090° 10 kt METAR EHQE 221925Z AUTO 09010KT 9999 NSC 15/09 Q1010
20:55
V
15 °C 10 km+ - 100°   100° 7 kt METAR EHQE 221855Z AUTO 10007KT 9999 NSC 15/07 Q1011
20:25
V
14 °C 10 km+ - 090°   090° 7 kt METAR EHQE 221825Z AUTO 09007KT 9999 NSC 14/10 Q1011
19:55
L
14 °C 0 m - 070°   070° 5 kt METAR EHQE 221755Z AUTO 07005KT //// // NSC 14/10 Q1011
19:25
V
14 °C 10 km+ - 070°   070° 4 kt METAR EHQE 221725Z AUTO 07004KT 9999 -RA NSC 14/10 Q1012 RE//
18:55
V
14 °C 10 km+ - 070°   070° 6 kt METAR EHQE 221655Z AUTO 07006KT 9999 NSC 14/10 Q1012
18:25
V
14 °C 10 km+ - 080°   080° 4 kt METAR EHQE 221625Z AUTO 08004KT 050V110 9999 NSC 14/09 Q1012
17:55
V
14 °C 10 km+ - 240°   240° 3 kt METAR EHQE 221555Z AUTO 24003KT 9999 NSC 14/10 Q1013
17:25
V
14 °C 10 km+ - 260°   260° 5 kt METAR EHQE 221525Z AUTO 26005KT 9999 NSC 14/10 Q1013
16:55
V
14 °C 10 km+ - 250°   250° 5 kt METAR EHQE 221455Z AUTO 25005KT 9999 NSC 14/10 Q1013
16:25
V
14 °C 10 km+ - 250°   250° 7 kt METAR EHQE 221425Z AUTO 25007KT 9999 NSC 14/11 Q1013
15:55
V
14 °C 10 km+ - 240°   240° 8 kt METAR EHQE 221355Z AUTO 24008KT 9999 NSC 14/11 Q1014
15:25
V
14 °C 10 km+ - 230°   230° 8 kt METAR EHQE 221325Z AUTO 23008KT 9999 NSC 14/11 Q1014
14:55
V
13 °C 10 km+ - 220°   220° 9 kt METAR EHQE 221255Z AUTO 22009KT 9999 NSC 13/11 Q1015
14:25
V
13 °C 10 km+ - 200°   200° 8 kt METAR EHQE 221225Z AUTO 20008KT 9999 NSC 13/11 Q1015
13:55
V
13 °C 10 km+ - 210°   210° 9 kt METAR EHQE 221155Z AUTO 21009KT 9999 NSC 13/11 Q1015
13:25
V
13 °C 10 km+ - 220°   220° 12 kt METAR EHQE 221125Z AUTO 22012KT 9999 NSC 13/11 Q1015
12:55
V
13 °C 10 km+ - 210°   210° 12 kt METAR EHQE 221055Z AUTO 21012KT 9999 NSC 13/11 Q1016
12:25
V
13 °C 10 km+ - 210°   210° 14 kt METAR EHQE 221025Z AUTO 21014KT 9999 NSC 13/11 Q1016
11:55
V
13 °C 10 km+ - 200°   200° 14 kt METAR EHQE 220955Z AUTO 20014KT 9999 NSC 13/11 Q1016
11:25
V
13 °C 10 km+ - 200°   200° 15 kt METAR EHQE 220925Z AUTO 20015KT 9999 NSC 13/11 Q1016
10:55
V
13 °C 10 km+ - 350°   350° 16 kt METAR EHQE 220855Z AUTO 35016KT 9999 NSC 13/11 Q1016
10:25
V
13 °C 10 km+ - 350°   350° 16 kt METAR EHQE 220825Z AUTO 35016KT 9999 NSC 13/11 Q1017
09:55
V
13 °C 10 km+ - 350°   350° 16 kt METAR EHQE 220755Z AUTO 35016KT 9999 NSC 13/11 Q1017
09:25
V
13 °C 10 km+ - 350°   350° 15 kt METAR EHQE 220725Z AUTO 35015KT 9999 NSC 13/11 Q1017
08:55
V
13 °C 10 km+ - 350°   350° 15 kt METAR EHQE 220655Z AUTO 35015KT 9999 NSC 13/10 Q1017
08:25
V
13 °C 10 km+ - 350°   350° 13 kt METAR EHQE 220625Z AUTO 35013KT 9999 NSC 13/10 Q1017
07:55
V
13 °C 10 km+ - 350°   350° 14 kt METAR EHQE 220555Z AUTO 35014KT 9999 NSC 13/11 Q1017
07:25
V
13 °C 10 km+ - 350°   350° 14 kt METAR EHQE 220525Z AUTO 35014KT 9999 NCD 13/11 Q1017
06:55
V
12 °C 10 km+ - 200°   200° 11 kt METAR EHQE 220455Z AUTO 20011KT 9999 NSC 12/11 Q1017
06:25
V
12 °C 10 km+ - 200°   200° 11 kt METAR EHQE 220425Z AUTO 20011KT 9999 NSC 12/11 Q1017
05:55
V
12 °C 10 km+ - 350°   350° 12 kt METAR EHQE 220355Z AUTO 35012KT 9999 NSC 12/11 Q1017
05:25
V
12 °C 10 km+ - 350°   350° 13 kt METAR EHQE 220325Z AUTO 35013KT 9999 NSC 12/11 Q1017
04:55
V
12 °C 10 km+ - 350°   350° 14 kt METAR EHQE 220255Z AUTO 35014KT 9999 NSC 12/11 Q1017
04:25
V
12 °C 10 km+ - 350°   350° 13 kt METAR EHQE 220225Z AUTO 35013KT 9999 NSC 12/11 Q1017
03:55
V
12 °C 10 km+ - 210°   210° 12 kt METAR EHQE 220155Z AUTO 21012KT 9999 NSC 12/11 Q1018
03:25
V
12 °C 10 km+ - 200°   200° 11 kt METAR EHQE 220125Z AUTO 20011KT 9999 NSC 12/11 Q1018
02:55
V
12 °C 10 km+ - 200°   200° 11 kt METAR EHQE 220055Z AUTO 20011KT 9999 FEW043 12/11 Q1018
02:25
V
12 °C 10 km+ - 210°   210° 7 kt METAR EHQE 220025Z AUTO 21007KT 9999 FEW043/// 12/11 Q1018
01:55
V
12 °C 10 km+ - 210°   210° 7 kt METAR EHQE 212355Z AUTO 21007KT 9999 NSC 12/11 Q1019
01:25
V
12 °C 10 km+ - 200°   200° 6 kt METAR EHQE 212325Z AUTO 20006KT 9999 NSC 12/11 Q1019
00:55
V
12 °C 10 km+ - 210°   210° 5 kt METAR EHQE 212255Z AUTO 21005KT 9999 NSC 12/11 Q1019
00:25
V
12 °C 10 km+ - 200°   200° 6 kt METAR EHQE 212225Z AUTO 20006KT 9999 NSC 12/11 Q1019

21 mei 2022

Tijd Code Weer Temp. Zicht Wolken Wind METAR/SPECI
23:55
V
12 °C 10 km+ - 350°   350° 6 kt METAR EHQE 212155Z AUTO 35006KT 9999 NSC 12/10 Q1019
23:25
V
12 °C 10 km+ - 350°   350° 3 kt METAR EHQE 212125Z AUTO 35003KT 9999 NSC 12/10 Q1019
22:55
V
12 °C 10 km+ - 230°   230° 3 kt METAR EHQE 212055Z AUTO 23003KT 9999 NSC 12/11 Q1020
22:25
V
12 °C 10 km+ - 230°   230° 5 kt METAR EHQE 212025Z AUTO 23005KT 9999 NSC 12/11 Q1020
21:55
V
12 °C 10 km+ - 240°   240° 4 kt METAR EHQE 211955Z AUTO 24004KT 9999 NSC 12/11 Q1020
21:25
V
12 °C 10 km+ - 250°   250° 4 kt METAR EHQE 211925Z AUTO 25004KT 9999 NSC 12/11 Q1020 RE//
20:55
L
12 °C 0 m - 270°   270° 4 kt METAR EHQE 211855Z AUTO 27004KT //// // NSC 12/11 Q1020 RE//
20:25
V
12 °C 10 km+ - 260°   260° 7 kt METAR EHQE 211825Z AUTO 26007KT 9999 NSC 12/11 Q1020
19:55
L
12 °C 0 m - 250°   250° 6 kt METAR EHQE 211755Z AUTO 25006KT //// // NSC 12/11 Q1020 RE//
19:25
L
13 °C 0 m - 250°   250° 7 kt METAR EHQE 211725Z AUTO 25007KT //// // NSC 13/11 Q1020 RE//
18:55
L
13 °C 0 m - 250°   250° 6 kt METAR EHQE 211655Z AUTO 25006KT //// // NSC 13/11 Q1020
18:25
V
13 °C 10 km+ - 240°   240° 5 kt METAR EHQE 211625Z AUTO 24005KT 9999 NSC 13/11 Q1020
17:55
V
13 °C 10 km+ - 240°   240° 6 kt METAR EHQE 211555Z AUTO 24006KT 9999 NSC 13/11 Q1020
17:25
V
13 °C 10 km+ - 260°   260° 10 kt METAR EHQE 211525Z AUTO 26010KT 9999 NSC 13/11 Q1020
16:55
V
12 °C 10 km+ - 260°   260° 9 kt METAR EHQE 211455Z AUTO 26009KT 9999 NSC 12/10 Q1021
16:25
V
12 °C 10 km+ - 260°   260° 11 kt METAR EHQE 211425Z AUTO 26011KT 9999 NSC 12/10 Q1020
15:55
V
12 °C 10 km+ - 260°   260° 11 kt METAR EHQE 211355Z AUTO 26011KT 9999 NSC 12/10 Q1021
15:25
V
12 °C 10 km+ - 260°   260° 11 kt METAR EHQE 211325Z AUTO 26011KT 9999 NSC 12/10 Q1021
14:55
V
12 °C 10 km+ - 260°   260° 14 kt METAR EHQE 211255Z AUTO 26014KT 9999 NSC 12/10 Q1020
14:25
V
12 °C 10 km+ - 260°   260° 16 kt METAR EHQE 211225Z AUTO 26016KT 9999 NSC 12/10 Q1020
13:55
V
12 °C 10 km+ - 270°   270° 16 kt METAR EHQE 211155Z AUTO 27016KT 9999 NSC 12/10 Q1020
13:25
V
12 °C 10 km+ - 270°   270° 17 kt METAR EHQE 211125Z AUTO 27017KT 9999 NSC 12/10 Q1020
12:55
V
12 °C 10 km+ - 270°   270° 17 kt METAR EHQE 211055Z AUTO 27017KT 9999 NSC 12/10 Q1020
12:25
V
12 °C 10 km+ - 270°   270° 18 kt METAR EHQE 211025Z AUTO 27018KT 9999 NSC 12/10 Q1020
11:55
V
12 °C 10 km+ - 270°   270° 18 kt METAR EHQE 210955Z AUTO 27018KT 9999 NSC 12/10 Q1019
11:25
V
12 °C 10 km+ - 270°   270° 20 kt METAR EHQE 210925Z AUTO 27020KT 9999 NSC 12/10 Q1019
10:55
V
12 °C 10 km+ - 270°   270° 20 kt METAR EHQE 210855Z AUTO 27020KT 9999 NSC 12/10 Q1019
10:25
V
12 °C 10 km+ - 270°   270° 21 kt METAR EHQE 210825Z AUTO 27021KT 9999 NSC 12/10 Q1019
09:55
V
12 °C 10 km+ - 270°   270° 22 kt METAR EHQE 210755Z AUTO 27022KT 9999 NSC 12/10 Q1019
09:25
V
12 °C 10 km+ - 270°   270° 20 kt METAR EHQE 210725Z AUTO 27020KT 9999 NSC 12/10 Q1018
08:55
V
12 °C 10 km+ - 270°   270° 24 kt METAR EHQE 210655Z AUTO 27024KT 9999 NCD 12/10 Q1018
08:25
V
12 °C 10 km+ - 270°   270° 24 kt METAR EHQE 210625Z AUTO 27024KT 9999 NCD 12/10 Q1018
07:55
V
12 °C 10 km+ - 270°   270° 24 kt METAR EHQE 210555Z AUTO 27024KT 9999 NSC 12/09 Q1017
07:25
V
13 °C 10 km+ - 270°   270° 23 kt METAR EHQE 210525Z AUTO 27023KT 9999 NSC 13/10 Q1017
06:55
V
13 °C 10 km+ - 270°   270° 23 kt METAR EHQE 210455Z AUTO 27023KT 9999 NSC 13/10 Q1017
Oudere gegevens

Installeer onze app

Gemakkelijke toegang tot al het luchtvaartweer op je mobiele telefoon en tablet.
Met veel functies die niet op de website beschikbaar zijn, zoals offline ondersteuning en een persoonlijke lijst van vliegvelden.

Met cookies volgen wij en derde partijen jouw internetgedrag binnen onze site. Als je verdergaat gaan we ervan uit dat je dit goedvindt. Meer info